createdAt,value
2022-09-06T00:00:54.542Z,102656.95
2022-09-06T00:05:41.265Z,102654.20
2022-09-06T00:10:27.465Z,102656.98
2022-09-06T00:15:14.208Z,102656.41
2022-09-06T00:19:47.190Z,102658.39
2022-09-06T00:24:20.907Z,102661.85
2022-09-06T00:29:07.181Z,102663.16
2022-09-06T00:33:39.297Z,102659.77
2022-09-06T00:38:25.788Z,102656.84
2022-09-06T00:43:12.329Z,102653.45
2022-09-06T00:47:45.443Z,102652.04
2022-09-06T00:52:31.676Z,102650.31
2022-09-06T00:57:05.179Z,102648.71
2022-09-06T01:01:51.714Z,102650.71
2022-09-06T01:06:24.809Z,102645.35
2022-09-06T01:11:02.125Z,102639.83
2022-09-06T01:15:37.658Z,102643.05
2022-09-06T01:20:20.911Z,102649.79
2022-09-06T01:25:04.701Z,102648.04
2022-09-06T01:29:48.688Z,102649.46
2022-09-06T01:34:36.653Z,102644.14
2022-09-06T01:39:22.802Z,102655.70
2022-09-06T01:44:12.227Z,102656.16
2022-09-06T01:48:46.676Z,102655.67
2022-09-06T01:53:15.160Z,102655.61
2022-09-06T01:57:50.666Z,102659.59
2022-09-06T02:02:40.188Z,102662.50
2022-09-06T02:07:24.808Z,102659.05
2022-09-06T02:12:10.939Z,102663.65
2022-09-06T02:16:57.398Z,102665.83
2022-09-06T02:21:43.900Z,102664.09
2022-09-06T02:26:42.564Z,102665.20
2022-09-06T02:31:15.783Z,102662.90
2022-09-06T02:36:02.405Z,102660.20
2022-09-06T02:40:48.759Z,102657.95
2022-09-06T02:45:21.726Z,102657.75
2022-09-06T02:50:08.157Z,102649.38
2022-09-06T02:54:54.560Z,102648.80
2022-09-06T02:59:27.840Z,102650.11
2022-09-06T03:03:59.866Z,102641.96
2022-09-06T03:08:46.144Z,102642.45
2022-09-06T03:13:20.840Z,102642.17
2022-09-06T03:18:07.340Z,102640.97
2022-09-06T03:22:40.643Z,102642.60
2022-09-06T03:27:27.283Z,102646.36
2022-09-06T03:32:13.606Z,102650.89
2022-09-06T03:36:49.292Z,102643.23
2022-09-06T03:41:35.786Z,102636.59
2022-09-06T03:46:10.385Z,102634.02
2022-09-06T03:50:36.159Z,102637.55
2022-09-06T03:55:07.013Z,102642.77
2022-09-06T03:59:24.667Z,102644.16
2022-09-06T04:03:57.858Z,102642.67
2022-09-06T04:08:23.735Z,102639.77
2022-09-06T04:12:56.236Z,102640.59
2022-09-06T04:17:19.261Z,102639.90
2022-09-06T04:21:50.743Z,102640.12
2022-09-06T04:26:37.181Z,102643.33
2022-09-06T04:31:10.395Z,102640.56
2022-09-06T04:36:14.891Z,102645.91
2022-09-06T04:51:33.020Z,102641.38
2022-09-06T05:20:29.477Z,102637.81
2022-09-06T05:35:24.125Z,102643.19
2022-09-06T05:49:17.728Z,102649.39
2022-09-06T06:17:12.048Z,102640.19
2022-09-06T06:21:26.356Z,102640.71
2022-09-06T06:25:34.334Z,102639.85
2022-09-06T06:45:17.437Z,102636.92
2022-09-06T06:49:29.368Z,102630.48
2022-09-06T06:53:44.877Z,102625.02
2022-09-06T06:57:53.289Z,102626.60
2022-09-06T07:44:34.968Z,102627.57
2022-09-06T07:49:26.759Z,102630.56
2022-09-06T07:54:29.954Z,102631.23
2022-09-06T07:58:43.644Z,102628.06
2022-09-06T08:02:56.276Z,102619.54
2022-09-06T08:07:44.337Z,102620.46
2022-09-06T08:11:56.523Z,102622.92
2022-09-06T08:16:09.252Z,102620.90
2022-09-06T08:20:43.646Z,102623.11
2022-09-06T08:24:56.567Z,102619.21
2022-09-06T08:29:43.079Z,102614.15
2022-09-06T08:38:27.715Z,102613.49
2022-09-06T08:42:46.235Z,102617.41
2022-09-06T08:51:38.503Z,102610.95
2022-09-06T08:56:13.469Z,102597.08
2022-09-06T09:00:46.110Z,102596.02
2022-09-06T09:05:12.391Z,102589.56
2022-09-06T09:09:43.831Z,102591.52
2022-09-06T09:14:13.152Z,102593.44
2022-09-06T09:18:59.828Z,102592.31
2022-09-06T09:23:25.668Z,102590.73
2022-09-06T09:27:47.228Z,102587.29
2022-09-06T09:31:59.558Z,102588.39
2022-09-06T09:36:14.651Z,102582.81
2022-09-06T09:40:40.817Z,102583.61
2022-09-06T09:44:53.066Z,102580.07
2022-09-06T09:49:19.190Z,102579.98
2022-09-06T09:53:31.637Z,102576.05
2022-09-06T09:57:44.165Z,102582.73
2022-09-06T10:02:16.827Z,102573.70
2022-09-06T10:11:21.758Z,102574.80
2022-09-06T10:16:14.236Z,102569.45
2022-09-06T10:24:53.098Z,102566.54
2022-09-06T10:29:21.713Z,102561.66
2022-09-06T10:33:32.412Z,102561.39
2022-09-06T10:37:53.078Z,102554.12
2022-09-06T10:42:05.896Z,102559.77
2022-09-06T10:46:17.007Z,102554.58
2022-09-06T10:50:35.458Z,102554.18
2022-09-06T10:54:49.217Z,102555.95
2022-09-06T11:04:16.223Z,102553.59
2022-09-06T11:13:02.885Z,102552.50
2022-09-06T11:17:09.885Z,102545.73
2022-09-06T11:21:36.111Z,102543.06
2022-09-06T11:26:14.385Z,102535.81
2022-09-06T11:30:27.205Z,102536.11
2022-09-06T11:34:44.839Z,102533.22
2022-09-06T11:39:03.141Z,102528.69
2022-09-06T11:43:32.269Z,102527.58
2022-09-06T11:47:39.039Z,102521.29
2022-09-06T11:51:51.340Z,102513.17
2022-09-06T11:56:04.289Z,102510.86
2022-09-06T12:00:16.220Z,102509.98
2022-09-06T12:04:49.146Z,102506.55
2022-09-06T12:09:15.262Z,102502.95
2022-09-06T12:13:41.424Z,102495.19
2022-09-06T12:17:53.526Z,102497.02
2022-09-06T12:22:18.165Z,102491.94
2022-09-06T12:26:30.784Z,102483.80
2022-09-06T12:31:18.293Z,102480.09
2022-09-06T12:40:03.563Z,102469.69
2022-09-06T12:44:29.618Z,102467.39
2022-09-06T12:49:14.639Z,102462.95
2022-09-06T12:53:29.556Z,102454.08
2022-09-06T12:57:54.210Z,102452.54
2022-09-06T13:02:07.004Z,102445.81
2022-09-06T13:06:33.609Z,102444.60
2022-09-06T13:10:45.988Z,102445.48
2022-09-06T13:15:11.798Z,102443.69
2022-09-06T13:19:37.081Z,102433.43
2022-09-06T13:23:52.203Z,102434.66
2022-09-06T13:27:55.619Z,102432.90
2022-09-06T13:32:21.919Z,102426.71
2022-09-06T13:37:13.419Z,102429.21
2022-09-06T13:41:26.155Z,102421.98
2022-09-06T13:46:05.058Z,102421.70
2022-09-06T13:50:18.007Z,102422.43
2022-09-06T13:54:30.351Z,102413.73
2022-09-06T13:58:41.881Z,102413.17
2022-09-06T14:03:22.934Z,102408.14
2022-09-06T14:07:30.521Z,102406.23
2022-09-06T14:11:53.615Z,102402.68
2022-09-06T14:16:06.288Z,102399.48
2022-09-06T14:20:18.455Z,102395.55
2022-09-06T14:29:25.405Z,102397.53
2022-09-06T14:33:58.702Z,102396.34
2022-09-06T14:38:31.750Z,102395.10
2022-09-06T14:42:46.566Z,102392.14
2022-09-06T15:02:22.537Z,102370.29
2022-09-06T15:17:11.910Z,102363.42
2022-09-06T15:21:51.957Z,102364.41
2022-09-06T15:36:55.190Z,102355.16
2022-09-06T15:52:11.659Z,102336.40
2022-09-06T15:57:04.148Z,102329.20
2022-09-06T16:01:42.795Z,102320.01
2022-09-06T16:06:31.440Z,102315.39
2022-09-06T16:11:04.671Z,102310.98
2022-09-06T16:15:37.721Z,102304.79
2022-09-06T16:20:24.160Z,102296.64
2022-09-06T16:24:56.915Z,102293.83
2022-09-06T16:29:29.793Z,102291.16
2022-09-06T16:34:02.855Z,102292.21
2022-09-06T16:38:35.531Z,102285.50
2022-09-06T16:43:00.798Z,102280.53
2022-09-06T16:47:34.009Z,102279.30
2022-09-06T16:52:00.038Z,102283.55
2022-09-06T16:56:33.039Z,102279.13
2022-09-06T17:01:05.900Z,102278.59
2022-09-06T17:05:39.090Z,102274.48
2022-09-06T17:10:12.549Z,102270.23
2022-09-06T17:14:45.250Z,102269.52
2022-09-06T17:19:08.636Z,102268.98
2022-09-06T17:23:41.679Z,102265.61
2022-09-06T17:28:13.526Z,102269.67
2022-09-06T17:32:46.205Z,102273.70
2022-09-06T17:37:13.673Z,102277.59
2022-09-06T17:41:46.470Z,102272.42
2022-09-06T17:46:19.354Z,102271.35
2022-09-06T17:51:06.009Z,102270.80
2022-09-06T17:55:52.336Z,102269.37
2022-09-06T18:00:20.018Z,102272.36
2022-09-06T18:04:52.945Z,102276.80
2022-09-06T18:09:25.422Z,102274.86
2022-09-06T18:13:57.696Z,102272.21
2022-09-06T18:18:25.522Z,102269.48
2022-09-06T18:22:58.337Z,102276.08
2022-09-06T18:27:31.514Z,102277.50
2022-09-06T18:32:04.859Z,102277.30
2022-09-06T18:36:37.621Z,102273.93
2022-09-06T18:41:10.137Z,102272.70
2022-09-06T18:45:56.442Z,102272.67
2022-09-06T18:50:29.194Z,102272.64
2022-09-06T18:55:00.914Z,102275.45
2022-09-06T18:59:34.449Z,102273.14
2022-09-06T19:04:20.612Z,102273.98
2022-09-06T19:09:13.111Z,102272.05
2022-09-06T19:14:04.510Z,102271.31
2022-09-06T19:18:32.011Z,102267.07
2022-09-06T19:38:42.066Z,102250.63
2022-09-06T19:52:45.189Z,102238.66
2022-09-06T20:07:53.744Z,102222.76
2022-09-06T20:22:26.827Z,102216.91
2022-09-06T20:53:48.287Z,102202.42
2022-09-06T20:58:21.557Z,102198.11
2022-09-06T21:02:48.938Z,102196.11
2022-09-06T21:07:35.646Z,102195.88
2022-09-06T21:12:22.474Z,102194.75
2022-09-06T21:16:49.794Z,102189.95
2022-09-06T21:21:23.145Z,102189.75
2022-09-06T21:25:55.928Z,102183.88
2022-09-06T21:30:40.519Z,102181.05
2022-09-06T21:40:02.070Z,102179.24
2022-09-06T21:44:34.630Z,102183.46
2022-09-06T21:53:56.846Z,102181.11
2022-09-06T21:58:29.933Z,102177.44
2022-09-06T22:03:03.189Z,102176.52
2022-09-06T22:07:49.541Z,102173.69
2022-09-06T22:12:36.150Z,102175.98
2022-09-06T22:17:22.581Z,102175.44
2022-09-06T22:22:08.485Z,102173.31
2022-09-06T22:31:28.431Z,102164.98
2022-09-06T22:35:42.964Z,102165.33
2022-09-06T22:40:29.020Z,102161.96
2022-09-06T22:45:02.293Z,102160.00
2022-09-06T22:49:35.282Z,102159.46
2022-09-06T22:54:08.270Z,102154.70
2022-09-06T22:58:54.864Z,102153.63
2022-09-06T23:03:41.503Z,102153.80
2022-09-06T23:08:14.471Z,102157.15
2022-09-06T23:12:47.169Z,102159.78
2022-09-06T23:22:20.646Z,102147.25
2022-09-06T23:27:09.718Z,102140.20
2022-09-06T23:31:55.833Z,102138.93
2022-09-06T23:36:28.856Z,102136.98
2022-09-06T23:41:15.455Z,102132.73
2022-09-06T23:46:02.125Z,102127.27
2022-09-06T23:50:27.849Z,102123.02
2022-09-06T23:55:14.618Z,102123.75
2022-09-06T23:59:50.477Z,102116.68
